createdAt,value
2018-12-07T00:02:30.274Z,99.33
2018-12-07T00:05:33.880Z,99.33
2018-12-07T00:08:37.547Z,99.08
2018-12-07T00:11:41.123Z,99.39
2018-12-07T00:14:44.598Z,99.47
2018-12-07T00:17:48.093Z,99.24
2018-12-07T00:20:51.684Z,99.19
2018-12-07T00:23:55.230Z,99.04
2018-12-07T00:26:58.805Z,98.98
2018-12-07T00:30:02.892Z,99.25
2018-12-07T00:33:06.617Z,99.93
2018-12-07T00:36:10.543Z,99.97
2018-12-07T00:39:15.261Z,100.00
2018-12-07T00:42:18.925Z,100.00
2018-12-07T00:45:22.404Z,100.00
2018-12-07T00:48:25.900Z,100.00
2018-12-07T00:51:29.560Z,100.00
2018-12-07T00:54:33.187Z,100.00
2018-12-07T00:57:36.654Z,100.00
2018-12-07T01:00:40.061Z,100.00
2018-12-07T01:03:43.563Z,100.00
2018-12-07T01:06:47.172Z,100.00
2018-12-07T01:09:50.858Z,100.00
2018-12-07T01:12:54.800Z,100.00
2018-12-07T01:15:58.487Z,100.00
2018-12-07T01:19:02.237Z,100.00
2018-12-07T01:22:05.801Z,100.00
2018-12-07T01:25:09.273Z,100.00
2018-12-07T01:28:12.783Z,100.00
2018-12-07T01:31:16.567Z,100.00
2018-12-07T01:34:20.116Z,100.00
2018-12-07T01:37:23.773Z,100.00
2018-12-07T01:40:28.567Z,100.00
2018-12-07T01:43:32.180Z,100.00
2018-12-07T01:46:35.821Z,100.00
2018-12-07T01:49:39.473Z,100.00
2018-12-07T01:52:43.135Z,100.00
2018-12-07T01:55:46.763Z,100.00
2018-12-07T01:58:50.434Z,100.00
2018-12-07T02:01:54.102Z,100.00
2018-12-07T02:04:57.570Z,100.00
2018-12-07T02:08:01.173Z,100.00
2018-12-07T02:11:04.703Z,100.00
2018-12-07T02:14:08.281Z,100.00
2018-12-07T02:17:11.771Z,100.00
2018-12-07T02:20:15.463Z,100.00
2018-12-07T02:23:19.089Z,100.00
2018-12-07T02:26:22.775Z,100.00
2018-12-07T02:29:26.310Z,100.00
2018-12-07T02:32:29.818Z,100.00
2018-12-07T02:35:33.376Z,100.00
2018-12-07T02:38:37.275Z,100.00
2018-12-07T02:41:40.891Z,100.00
2018-12-07T02:44:44.551Z,100.00
2018-12-07T02:47:48.445Z,100.00
2018-12-07T02:50:52.310Z,100.00
2018-12-07T02:53:55.930Z,100.00
2018-12-07T02:56:59.599Z,100.00
2018-12-07T03:00:03.421Z,100.00
2018-12-07T03:03:07.014Z,100.00
2018-12-07T03:06:10.634Z,100.00
2018-12-07T03:09:14.055Z,100.00
2018-12-07T03:12:17.588Z,100.00
2018-12-07T03:15:21.187Z,100.00
2018-12-07T03:18:30.245Z,100.00
2018-12-07T03:21:33.837Z,100.00
2018-12-07T03:24:37.408Z,100.00
2018-12-07T03:27:41.016Z,100.00
2018-12-07T03:30:44.593Z,100.00
2018-12-07T03:33:48.124Z,100.00
2018-12-07T03:36:51.736Z,100.00
2018-12-07T03:39:55.398Z,100.00
2018-12-07T03:42:58.946Z,100.00
2018-12-07T03:46:02.715Z,100.00
2018-12-07T03:49:06.148Z,100.00
2018-12-07T03:52:09.869Z,100.00
2018-12-07T03:55:13.522Z,100.00
2018-12-07T03:58:17.273Z,100.00
2018-12-07T04:01:20.833Z,100.00
2018-12-07T04:04:24.575Z,99.83
2018-12-07T04:07:28.099Z,99.32
2018-12-07T04:10:31.662Z,98.84
2018-12-07T04:13:35.326Z,98.38
2018-12-07T04:16:38.858Z,97.49
2018-12-07T04:19:42.329Z,97.69
2018-12-07T04:22:45.873Z,97.50
2018-12-07T04:25:49.325Z,97.20
2018-12-07T04:28:52.845Z,97.26
2018-12-07T04:31:56.409Z,96.61
2018-12-07T04:34:59.812Z,96.34
2018-12-07T04:38:03.497Z,96.51
2018-12-07T04:41:06.989Z,95.85
2018-12-07T04:44:10.597Z,95.89
2018-12-07T04:47:14.050Z,94.90
2018-12-07T04:50:18.825Z,95.25
2018-12-07T04:53:23.418Z,95.41
2018-12-07T04:56:30.890Z,95.52
2018-12-07T04:59:34.633Z,95.18
2018-12-07T05:02:38.148Z,94.94
2018-12-07T05:05:41.758Z,95.03
2018-12-07T05:08:45.355Z,94.85
2018-12-07T05:11:48.985Z,95.08
2018-12-07T05:14:52.547Z,94.69
2018-12-07T05:17:56.217Z,95.48
2018-12-07T05:20:59.629Z,94.90
2018-12-07T05:24:03.327Z,95.84
2018-12-07T05:27:06.891Z,96.31
2018-12-07T05:30:10.490Z,96.91
2018-12-07T05:33:14.308Z,98.11
2018-12-07T05:36:17.829Z,97.70
2018-12-07T05:39:21.380Z,97.63
2018-12-07T05:42:24.918Z,96.72
2018-12-07T05:45:28.416Z,96.50
2018-12-07T05:48:32.086Z,96.02
2018-12-07T05:51:35.583Z,96.70
2018-12-07T05:54:39.090Z,96.60
2018-12-07T05:57:42.965Z,97.01
2018-12-07T06:00:46.647Z,97.30
2018-12-07T06:03:50.119Z,97.09
2018-12-07T06:06:53.541Z,97.68
2018-12-07T06:09:57.205Z,97.22
2018-12-07T06:13:00.795Z,96.17
2018-12-07T06:16:04.560Z,96.33
2018-12-07T06:19:08.174Z,96.34
2018-12-07T06:22:11.775Z,95.96
2018-12-07T06:25:15.398Z,96.25
2018-12-07T06:28:18.895Z,96.51
2018-12-07T06:31:26.535Z,96.21
2018-12-07T06:34:29.990Z,96.57
2018-12-07T06:37:33.488Z,96.78
2018-12-07T06:40:37.084Z,96.47
2018-12-07T06:43:41.130Z,96.23
2018-12-07T06:46:44.531Z,95.73
2018-12-07T06:49:48.001Z,95.20
2018-12-07T06:52:51.871Z,94.44
2018-12-07T06:55:55.309Z,94.23
2018-12-07T06:58:58.919Z,94.17
2018-12-07T07:02:02.630Z,93.34
2018-12-07T07:05:07.106Z,92.75
2018-12-07T07:08:10.626Z,91.57
2018-12-07T07:11:14.246Z,90.72
2018-12-07T07:14:17.730Z,91.08
2018-12-07T07:17:21.175Z,90.92
2018-12-07T07:20:24.989Z,90.69
2018-12-07T07:23:28.628Z,90.54
2018-12-07T07:26:32.087Z,89.49
2018-12-07T07:29:35.756Z,89.76
2018-12-07T07:32:39.390Z,89.87
2018-12-07T07:35:42.856Z,90.47
2018-12-07T07:38:46.399Z,89.99
2018-12-07T07:41:50.021Z,90.68
2018-12-07T07:44:53.662Z,91.05
2018-12-07T07:47:57.178Z,90.99
2018-12-07T07:51:01.075Z,91.71
2018-12-07T07:54:04.820Z,91.31
2018-12-07T07:57:08.271Z,91.04
2018-12-07T08:00:11.958Z,91.19
2018-12-07T08:03:15.568Z,91.04
2018-12-07T08:06:19.350Z,91.49
2018-12-07T08:09:23.025Z,91.57
2018-12-07T08:12:26.549Z,91.62
2018-12-07T08:15:31.062Z,91.40
2018-12-07T08:18:34.492Z,91.15
2018-12-07T08:21:38.090Z,91.27
2018-12-07T08:24:41.592Z,90.44
2018-12-07T08:27:45.152Z,89.62
2018-12-07T08:30:48.826Z,90.50
2018-12-07T08:33:52.463Z,90.42
2018-12-07T08:36:55.964Z,90.16
2018-12-07T08:40:00.638Z,90.36
2018-12-07T08:43:04.148Z,90.00
2018-12-07T08:46:07.732Z,90.10
2018-12-07T08:49:11.149Z,89.57
2018-12-07T08:52:14.607Z,89.87
2018-12-07T08:55:18.218Z,89.82
2018-12-07T08:58:21.838Z,89.46
2018-12-07T09:01:25.224Z,89.43
2018-12-07T09:04:28.856Z,89.01
2018-12-07T09:07:32.260Z,89.57
2018-12-07T09:10:35.728Z,89.59
2018-12-07T09:13:39.151Z,89.83
2018-12-07T09:16:42.551Z,89.89
2018-12-07T09:19:45.985Z,89.47
2018-12-07T09:22:49.490Z,89.46
2018-12-07T09:25:52.988Z,89.57
2018-12-07T09:28:56.578Z,89.41
2018-12-07T09:31:59.972Z,89.34
2018-12-07T09:35:03.604Z,89.12
2018-12-07T09:38:13.099Z,88.88
2018-12-07T09:41:10.599Z,88.65
2018-12-07T09:44:14.091Z,88.53
2018-12-07T09:47:17.604Z,88.87
2018-12-07T09:50:21.211Z,88.74
2018-12-07T09:53:24.848Z,89.13
2018-12-07T09:56:28.424Z,89.92
2018-12-07T09:59:31.971Z,89.94
2018-12-07T10:02:35.526Z,89.80
2018-12-07T10:05:39.059Z,89.23
2018-12-07T10:08:42.541Z,89.70
2018-12-07T10:11:46.030Z,89.23
2018-12-07T10:14:49.410Z,89.47
2018-12-07T10:17:52.833Z,89.34
2018-12-07T10:20:56.622Z,88.58
2018-12-07T10:24:00.150Z,88.39
2018-12-07T10:27:07.069Z,88.95
2018-12-07T10:30:10.710Z,89.05
2018-12-07T10:33:14.290Z,88.32
2018-12-07T10:36:17.981Z,88.34
2018-12-07T10:39:21.709Z,88.58
2018-12-07T10:42:25.331Z,88.59
2018-12-07T10:45:29.935Z,87.83
2018-12-07T10:48:33.749Z,87.61
2018-12-07T10:51:37.536Z,87.80
2018-12-07T10:54:41.114Z,88.09
2018-12-07T10:57:44.585Z,87.49
2018-12-07T11:00:53.402Z,88.32
2018-12-07T11:04:02.325Z,88.19
2018-12-07T11:07:11.413Z,88.56
2018-12-07T11:10:20.230Z,88.70
2018-12-07T11:13:28.969Z,88.97
2018-12-07T11:16:37.777Z,89.77
2018-12-07T11:19:46.610Z,88.84
2018-12-07T11:22:55.654Z,88.03
2018-12-07T11:26:05.571Z,88.33
2018-12-07T11:29:16.301Z,89.89
2018-12-07T11:32:45.098Z,91.64
2018-12-07T11:35:48.670Z,91.69
2018-12-07T11:38:52.072Z,92.58
2018-12-07T11:41:55.491Z,91.49
2018-12-07T11:44:58.930Z,91.35
2018-12-07T11:48:02.632Z,91.30
2018-12-07T11:51:06.310Z,91.53
2018-12-07T11:54:09.682Z,90.54
2018-12-07T11:57:13.151Z,91.28
2018-12-07T12:00:16.684Z,91.90
2018-12-07T12:03:20.161Z,90.78
2018-12-07T12:06:23.976Z,90.63
2018-12-07T12:09:27.530Z,89.53
2018-12-07T12:12:30.953Z,89.77
2018-12-07T12:15:34.558Z,90.31
2018-12-07T12:18:38.014Z,90.13
2018-12-07T12:21:41.579Z,90.21
2018-12-07T12:24:45.158Z,91.17
2018-12-07T12:27:48.603Z,91.59
2018-12-07T12:30:52.627Z,92.54
2018-12-07T12:33:56.104Z,92.83
2018-12-07T12:36:59.835Z,93.19
2018-12-07T12:40:04.619Z,92.86
2018-12-07T12:43:08.294Z,94.02
2018-12-07T12:46:11.727Z,92.83
2018-12-07T12:49:15.178Z,91.30
2018-12-07T12:52:18.832Z,90.64
2018-12-07T12:55:22.263Z,91.67
2018-12-07T12:58:25.844Z,91.32
2018-12-07T13:01:29.254Z,91.46
2018-12-07T13:04:32.770Z,90.64
2018-12-07T13:07:36.547Z,89.19
2018-12-07T13:10:40.089Z,88.81
2018-12-07T13:13:43.680Z,88.74
2018-12-07T13:16:47.153Z,88.12
2018-12-07T13:19:50.811Z,86.53
2018-12-07T13:22:54.477Z,86.87
2018-12-07T13:25:57.896Z,86.76
2018-12-07T13:29:01.627Z,86.56
2018-12-07T13:32:05.539Z,87.32
2018-12-07T13:35:09.181Z,86.03
2018-12-07T13:38:12.632Z,85.09
2018-12-07T13:41:16.595Z,83.97
2018-12-07T13:44:20.124Z,84.50
2018-12-07T13:47:23.897Z,83.68
2018-12-07T13:50:33.013Z,82.95
2018-12-07T13:53:38.079Z,83.25
2018-12-07T13:56:40.120Z,83.20
2018-12-07T13:59:43.931Z,83.38
2018-12-07T14:02:47.645Z,81.84
2018-12-07T14:05:51.533Z,82.13
2018-12-07T14:08:54.932Z,80.46
2018-12-07T14:11:58.425Z,79.32
2018-12-07T14:15:02.086Z,77.54
2018-12-07T14:18:05.938Z,77.28
2018-12-07T14:21:09.363Z,76.36
2018-12-07T14:24:12.980Z,76.33
2018-12-07T14:27:16.614Z,77.21
2018-12-07T14:30:20.226Z,76.44
2018-12-07T14:33:23.839Z,76.04
2018-12-07T14:36:27.296Z,75.79
2018-12-07T14:39:30.997Z,74.75
2018-12-07T14:42:34.529Z,75.40
2018-12-07T14:45:38.081Z,76.47
2018-12-07T14:48:41.587Z,75.94
2018-12-07T14:51:45.196Z,75.91
2018-12-07T14:54:48.705Z,75.67
2018-12-07T14:57:52.315Z,75.79
2018-12-07T15:00:55.920Z,75.98
2018-12-07T15:03:59.804Z,75.76
2018-12-07T15:07:04.371Z,76.38
2018-12-07T15:10:09.115Z,76.70
2018-12-07T15:13:12.594Z,75.82
2018-12-07T15:16:16.007Z,75.80
2018-12-07T15:19:19.663Z,75.09
2018-12-07T15:22:23.341Z,75.24
2018-12-07T15:25:26.783Z,74.95
2018-12-07T15:28:30.486Z,74.68
2018-12-07T15:31:34.023Z,73.32
2018-12-07T15:34:37.640Z,73.32
2018-12-07T15:37:41.287Z,73.33
2018-12-07T15:40:44.900Z,72.67
2018-12-07T15:43:48.630Z,72.67
2018-12-07T15:46:51.911Z,72.06
2018-12-07T15:49:55.555Z,71.77
2018-12-07T15:52:59.297Z,70.04
2018-12-07T15:56:03.136Z,70.49
2018-12-07T15:59:06.859Z,70.10
2018-12-07T16:02:10.239Z,70.70
2018-12-07T16:05:13.851Z,70.49
2018-12-07T16:08:24.754Z,71.76
2018-12-07T16:11:21.251Z,70.47
2018-12-07T16:14:24.766Z,70.87
2018-12-07T16:17:28.379Z,69.72
2018-12-07T16:20:32.271Z,68.34
2018-12-07T16:23:35.888Z,67.63
2018-12-07T16:26:39.455Z,67.49
2018-12-07T16:29:42.957Z,68.13
2018-12-07T16:32:46.647Z,67.52
2018-12-07T16:35:50.129Z,67.52
2018-12-07T16:38:54.772Z,67.42
2018-12-07T16:41:58.265Z,66.38
2018-12-07T16:45:01.872Z,66.45
2018-12-07T16:48:05.475Z,66.62
2018-12-07T16:51:08.892Z,66.76
2018-12-07T16:54:12.677Z,68.09
2018-12-07T16:57:16.442Z,70.16
2018-12-07T17:00:20.292Z,71.16
2018-12-07T17:03:24.054Z,70.99
2018-12-07T17:06:27.881Z,71.44
2018-12-07T17:09:31.324Z,70.57
2018-12-07T17:12:34.862Z,70.71
2018-12-07T17:15:40.341Z,71.21
2018-12-07T17:18:42.457Z,69.87
2018-12-07T17:21:46.283Z,69.81
2018-12-07T17:24:50.130Z,70.04
2018-12-07T17:27:53.908Z,69.33
2018-12-07T17:30:57.608Z,69.80
2018-12-07T17:34:01.184Z,70.44
2018-12-07T17:37:07.260Z,70.89
2018-12-07T17:40:11.620Z,70.64
2018-12-07T17:43:16.224Z,70.76
2018-12-07T17:46:20.085Z,71.35
2018-12-07T17:49:23.920Z,71.36
2018-12-07T17:52:27.829Z,71.42
2018-12-07T17:55:31.658Z,72.49
2018-12-07T17:58:35.174Z,73.02
2018-12-07T18:01:38.843Z,73.71
2018-12-07T18:04:42.476Z,75.81
2018-12-07T18:07:47.124Z,76.21
2018-12-07T18:10:51.476Z,76.83
2018-12-07T18:13:55.081Z,77.64
2018-12-07T18:16:58.837Z,78.16
2018-12-07T18:20:02.212Z,78.69
2018-12-07T18:23:06.018Z,80.06
2018-12-07T18:26:09.700Z,80.05
2018-12-07T18:29:13.514Z,81.82
2018-12-07T18:32:17.146Z,84.54
2018-12-07T18:35:20.944Z,86.39
2018-12-07T18:38:24.685Z,88.55
2018-12-07T18:41:28.414Z,90.35
2018-12-07T18:44:32.744Z,90.54
2018-12-07T18:47:37.846Z,92.12
2018-12-07T18:50:41.299Z,93.00
2018-12-07T18:53:46.254Z,93.20
2018-12-07T18:56:50.070Z,94.05
2018-12-07T18:59:53.787Z,95.40
2018-12-07T19:02:57.499Z,96.09
2018-12-07T19:06:01.174Z,95.34
2018-12-07T19:09:07.194Z,96.42
2018-12-07T19:12:11.911Z,96.30
2018-12-07T19:15:15.655Z,96.88
2018-12-07T19:18:18.979Z,97.75
2018-12-07T19:21:22.575Z,98.89
2018-12-07T19:24:26.113Z,99.80
2018-12-07T19:27:29.877Z,99.73
2018-12-07T19:30:33.197Z,99.26
2018-12-07T19:33:36.804Z,98.05
2018-12-07T19:36:41.145Z,98.01
2018-12-07T19:39:44.712Z,98.11
2018-12-07T19:42:48.199Z,97.50
2018-12-07T19:45:51.872Z,96.27
2018-12-07T19:48:56.508Z,95.71
2018-12-07T19:52:01.187Z,94.44
2018-12-07T19:55:05.263Z,94.28
2018-12-07T19:58:09.007Z,93.63
2018-12-07T20:01:12.595Z,91.67
2018-12-07T20:04:16.401Z,89.10
2018-12-07T20:07:20.068Z,85.16
2018-12-07T20:10:23.936Z,83.86
2018-12-07T20:13:27.479Z,82.09
2018-12-07T20:16:31.123Z,82.13
2018-12-07T20:19:34.683Z,80.51
2018-12-07T20:22:38.521Z,78.95
2018-12-07T20:25:42.237Z,78.28
2018-12-07T20:28:46.176Z,77.64
2018-12-07T20:31:50.105Z,76.61
2018-12-07T20:34:53.709Z,76.52
2018-12-07T20:37:57.642Z,75.60
2018-12-07T20:41:01.404Z,76.40
2018-12-07T20:44:05.238Z,75.31
2018-12-07T20:47:09.007Z,76.09
2018-12-07T20:50:12.801Z,75.95
2018-12-07T20:53:16.535Z,75.60
2018-12-07T20:56:21.035Z,75.84
2018-12-07T20:59:24.655Z,75.91
2018-12-07T21:02:28.559Z,76.93
2018-12-07T21:05:57.216Z,77.01
2018-12-07T21:09:25.371Z,76.79
2018-12-07T21:13:38.703Z,76.90
2018-12-07T21:17:00.065Z,76.24
2018-12-07T21:20:24.298Z,75.50
2018-12-07T21:23:28.084Z,74.64
2018-12-07T21:26:33.019Z,74.33
2018-12-07T21:29:36.658Z,74.62
2018-12-07T21:32:40.046Z,73.89
2018-12-07T21:35:56.658Z,73.13
2018-12-07T21:39:00.355Z,72.57
2018-12-07T21:42:03.989Z,71.73
2018-12-07T21:45:07.626Z,72.04
2018-12-07T21:48:24.888Z,72.12
2018-12-07T21:52:32.665Z,71.50
2018-12-07T21:55:37.082Z,72.27
2018-12-07T21:58:41.110Z,70.72
2018-12-07T22:01:44.691Z,71.47
2018-12-07T22:04:49.023Z,71.20
2018-12-07T22:07:53.055Z,70.41
2018-12-07T22:10:56.429Z,71.29
2018-12-07T22:14:00.141Z,71.42
2018-12-07T22:17:04.757Z,70.72
2018-12-07T22:20:09.384Z,71.16
2018-12-07T22:23:13.321Z,70.59
2018-12-07T22:26:16.522Z,70.71
2018-12-07T22:29:20.833Z,70.82
2018-12-07T22:32:24.487Z,70.41
2018-12-07T22:35:28.057Z,70.54
2018-12-07T22:38:31.827Z,69.73
2018-12-07T22:41:35.479Z,69.12
2018-12-07T22:44:39.069Z,70.01
2018-12-07T22:47:42.632Z,70.47
2018-12-07T22:50:46.418Z,70.36
2018-12-07T22:53:50.359Z,69.59
2018-12-07T22:56:55.093Z,69.36
2018-12-07T22:59:58.794Z,68.26
2018-12-07T23:03:02.337Z,67.95
2018-12-07T23:06:06.253Z,68.06
2018-12-07T23:09:09.864Z,67.98
2018-12-07T23:12:13.413Z,68.57
2018-12-07T23:15:17.071Z,69.62
2018-12-07T23:18:20.604Z,69.89
2018-12-07T23:21:24.134Z,70.58
2018-12-07T23:24:27.785Z,71.03
2018-12-07T23:27:31.272Z,71.38
2018-12-07T23:30:34.847Z,71.68
2018-12-07T23:33:38.421Z,72.40
2018-12-07T23:36:41.998Z,73.87
2018-12-07T23:39:45.605Z,73.61
2018-12-07T23:42:49.154Z,73.58
2018-12-07T23:45:52.637Z,73.96
2018-12-07T23:48:56.327Z,74.56
2018-12-07T23:52:00.014Z,74.49
2018-12-07T23:55:03.779Z,75.48
2018-12-07T23:58:07.563Z,76.89
